Nearby METAR Reports

 

EGQS - Lossiemouth Raf, United Kingdom
Distance from station: NW 60mi, 97km
Updated: 24/09/2020 15:50
Clear
Clear
 Wind from N
Wind: N 7 mph , 11 km/h
Temperature: 11°C
Dew Point: 4°C
Humidity: 62%
Barometer: 997 hPa
Clouds: Clear
Visibility: 6 miles , 10 km
2020/09/24 14:50 EGQS 241450Z AUTO 35006KT 9999 // NCD 11/04 Q0997